General Aviation Weather

Text Reports

Enter one or more of the following location identifiers separated by a space:

Zip Code, Four-Character ICAO or Three-Character IATA airport codes.

METAR - Aviation Routine Weather Report
KDQH - Douglas, Georgia
Updated at 3:35 AM GMT on July 27, 2016 (11:35 PM EDT):
METAR KDQH 270335Z AUTO 23004KT 10SM SCT100 26/22 A3008 RMK AO2
TAF - Terminal Area Forecast
KDQH - Douglas, Georgia
Updated at 3:35 AM GMT on July 27, 2016 (11:35 PM EDT):
No TAF is currently available for this location.
Decoded:
No decoded TAF is available.
PIREP - Pilot Weather Report
KDQH - Douglas, Georgia
Updated at 3:35 AM GMT on July 27, 2016 (11:35 PM EDT):
No PIREP is currently available for this location.
AIRMET - Airmens Meteorological Information
KDQH - Douglas, Georgia
Updated at 3:35 AM GMT on July 27, 2016 (11:35 PM EDT):
No AIRMET is currently available for this location.
SIGMET - Significant Meteorological Information
KDQH - Douglas, Georgia
Updated at 3:35 AM GMT on July 27, 2016 (11:35 PM EDT):
No SIGMET is currently available for this location.
NOTAM - Notice to Airmen
KDQH - Douglas, Georgia
Updated at 3:35 AM GMT on July 27, 2016 (11:35 PM EDT):
No NOTAM is currently available for this location.
Forecast Area
KDQH - Douglas, Georgia
Updated at 3:35 AM GMT on July 27, 2016 (11:35 PM EDT):
No NOTAM is currently available for this location.
Aviation Weather Maps